sensor_id;sensor_type;location;lat;lon;timestamp;P1;durP1;ratioP1;P2;durP2;ratioP2
35114;SDS011;21292;52.416;13.046;2022-12-08T00:01:31;29.33;;;11.18;;
35114;SDS011;21292;52.416;13.046;2022-12-08T00:04:01;28.98;;;11.27;;
35114;SDS011;21292;52.416;13.046;2022-12-08T00:06:30;23.35;;;10.38;;
35114;SDS011;21292;52.416;13.046;2022-12-08T00:09:18;31.92;;;10.27;;
35114;SDS011;21292;52.416;13.046;2022-12-08T00:11:53;25.77;;;9.98;;
35114;SDS011;21292;52.416;13.046;2022-12-08T00:14:25;28.98;;;10.52;;
35114;SDS011;21292;52.416;13.046;2022-12-08T00:19:23;34.38;;;10.82;;
35114;SDS011;21292;52.416;13.046;2022-12-08T00:21:51;28.20;;;10.93;;
35114;SDS011;21292;52.416;13.046;2022-12-08T00:24:20;25.27;;;11.45;;
35114;SDS011;21292;52.416;13.046;2022-12-08T00:26:49;34.30;;;12.20;;
35114;SDS011;21292;52.416;13.046;2022-12-08T00:29:18;32.75;;;11.77;;
35114;SDS011;21292;52.416;13.046;2022-12-08T00:31:48;34.60;;;11.75;;
35114;SDS011;21292;52.416;13.046;2022-12-08T00:34:16;35.33;;;13.48;;
35114;SDS011;21292;52.416;13.046;2022-12-08T00:36:44;39.75;;;12.27;;
35114;SDS011;21292;52.416;13.046;2022-12-08T00:39:12;41.65;;;13.57;;
35114;SDS011;21292;52.416;13.046;2022-12-08T00:41:41;38.70;;;12.50;;
35114;SDS011;21292;52.416;13.046;2022-12-08T00:44:27;37.50;;;14.05;;
35114;SDS011;21292;52.416;13.046;2022-12-08T00:46:56;39.97;;;12.60;;
35114;SDS011;21292;52.416;13.046;2022-12-08T00:49:24;36.50;;;13.60;;
35114;SDS011;21292;52.416;13.046;2022-12-08T00:51:52;35.03;;;12.40;;
35114;SDS011;21292;52.416;13.046;2022-12-08T00:54:21;38.30;;;13.68;;
35114;SDS011;21292;52.416;13.046;2022-12-08T00:56:49;37.95;;;13.18;;
35114;SDS011;21292;52.416;13.046;2022-12-08T00:59:18;35.60;;;13.65;;
35114;SDS011;21292;52.416;13.046;2022-12-08T01:01:46;45.35;;;14.70;;
35114;SDS011;21292;52.416;13.046;2022-12-08T01:04:16;54.13;;;15.77;;
35114;SDS011;21292;52.416;13.046;2022-12-08T01:06:45;47.53;;;16.25;;
35114;SDS011;21292;52.416;13.046;2022-12-08T01:09:13;37.05;;;14.32;;
35114;SDS011;21292;52.416;13.046;2022-12-08T01:11:43;39.28;;;15.85;;
35114;SDS011;21292;52.416;13.046;2022-12-08T01:14:12;44.03;;;15.02;;
35114;SDS011;21292;52.416;13.046;2022-12-08T01:16:41;40.88;;;14.80;;
35114;SDS011;21292;52.416;13.046;2022-12-08T01:19:10;43.50;;;16.15;;
35114;SDS011;21292;52.416;13.046;2022-12-08T01:21:41;45.03;;;15.25;;
35114;SDS011;21292;52.416;13.046;2022-12-08T01:24:10;46.28;;;16.48;;
35114;SDS011;21292;52.416;13.046;2022-12-08T01:26:38;46.58;;;15.07;;
35114;SDS011;21292;52.416;13.046;2022-12-08T01:29:07;49.92;;;17.38;;
35114;SDS011;21292;52.416;13.046;2022-12-08T01:31:36;47.92;;;16.38;;
35114;SDS011;21292;52.416;13.046;2022-12-08T01:34:05;42.05;;;16.73;;
35114;SDS011;21292;52.416;13.046;2022-12-08T01:36:34;50.97;;;17.42;;
35114;SDS011;21292;52.416;13.046;2022-12-08T01:39:06;49.42;;;16.15;;
35114;SDS011;21292;52.416;13.046;2022-12-08T01:41:36;55.25;;;17.25;;
35114;SDS011;21292;52.416;13.046;2022-12-08T01:47:06;44.75;;;17.27;;
35114;SDS011;21292;52.416;13.046;2022-12-08T01:49:35;47.90;;;17.98;;
35114;SDS011;21292;52.416;13.046;2022-12-08T01:52:04;47.90;;;17.55;;
35114;SDS011;21292;52.416;13.046;2022-12-08T01:54:40;41.58;;;15.63;;
35114;SDS011;21292;52.416;13.046;2022-12-08T01:57:10;47.85;;;16.60;;
35114;SDS011;21292;52.416;13.046;2022-12-08T01:59:40;49.78;;;15.75;;
35114;SDS011;21292;52.416;13.046;2022-12-08T02:02:11;34.13;;;12.07;;
35114;SDS011;21292;52.416;13.046;2022-12-08T02:04:39;39.80;;;15.27;;
35114;SDS011;21292;52.416;13.046;2022-12-08T02:07:07;47.38;;;17.08;;
35114;SDS011;21292;52.416;13.046;2022-12-08T02:09:36;41.55;;;14.95;;
35114;SDS011;21292;52.416;13.046;2022-12-08T02:12:06;43.78;;;14.65;;
35114;SDS011;21292;52.416;13.046;2022-12-08T02:14:35;42.15;;;15.23;;
35114;SDS011;21292;52.416;13.046;2022-12-08T02:17:06;45.53;;;15.38;;
35114;SDS011;21292;52.416;13.046;2022-12-08T02:19:54;48.97;;;15.55;;
35114;SDS011;21292;52.416;13.046;2022-12-08T02:22:45;37.90;;;16.17;;
35114;SDS011;21292;52.416;13.046;2022-12-08T02:25:19;35.55;;;13.52;;
35114;SDS011;21292;52.416;13.046;2022-12-08T02:27:54;31.35;;;11.90;;
35114;SDS011;21292;52.416;13.046;2022-12-08T02:30:32;32.03;;;12.73;;
35114;SDS011;21292;52.416;13.046;2022-12-08T02:33:25;33.97;;;12.35;;
35114;SDS011;21292;52.416;13.046;2022-12-08T02:36:07;29.17;;;10.70;;
35114;SDS011;21292;52.416;13.046;2022-12-08T02:38:42;31.17;;;10.93;;
35114;SDS011;21292;52.416;13.046;2022-12-08T02:41:16;31.98;;;11.38;;
35114;SDS011;21292;52.416;13.046;2022-12-08T02:43:47;30.15;;;11.18;;
35114;SDS011;21292;52.416;13.046;2022-12-08T02:46:19;33.97;;;10.77;;
35114;SDS011;21292;52.416;13.046;2022-12-08T02:48:50;28.42;;;10.38;;
35114;SDS011;21292;52.416;13.046;2022-12-08T02:51:19;28.75;;;10.95;;
35114;SDS011;21292;52.416;13.046;2022-12-08T02:53:47;28.60;;;10.20;;
35114;SDS011;21292;52.416;13.046;2022-12-08T02:56:21;27.20;;;9.55;;
35114;SDS011;21292;52.416;13.046;2022-12-08T02:59:09;32.60;;;11.00;;
35114;SDS011;21292;52.416;13.046;2022-12-08T03:01:50;23.85;;;9.70;;
35114;SDS011;21292;52.416;13.046;2022-12-08T03:04:28;30.77;;;11.77;;
35114;SDS011;21292;52.416;13.046;2022-12-08T03:07:03;26.17;;;10.00;;
35114;SDS011;21292;52.416;13.046;2022-12-08T03:09:34;31.85;;;11.18;;
35114;SDS011;21292;52.416;13.046;2022-12-08T03:12:07;31.35;;;10.85;;
35114;SDS011;21292;52.416;13.046;2022-12-08T03:14:39;28.35;;;12.63;;
35114;SDS011;21292;52.416;13.046;2022-12-08T03:17:12;36.78;;;13.55;;
35114;SDS011;21292;52.416;13.046;2022-12-08T03:19:43;31.88;;;11.73;;
35114;SDS011;21292;52.416;13.046;2022-12-08T03:22:13;33.72;;;14.05;;
35114;SDS011;21292;52.416;13.046;2022-12-08T03:24:43;41.95;;;15.52;;
35114;SDS011;21292;52.416;13.046;2022-12-08T03:27:12;44.15;;;14.80;;
35114;SDS011;21292;52.416;13.046;2022-12-08T03:29:42;47.95;;;16.02;;
35114;SDS011;21292;52.416;13.046;2022-12-08T03:32:11;42.63;;;16.80;;
35114;SDS011;21292;52.416;13.046;2022-12-08T03:34:42;47.20;;;17.80;;
35114;SDS011;21292;52.416;13.046;2022-12-08T03:37:13;40.70;;;15.80;;
35114;SDS011;21292;52.416;13.046;2022-12-08T03:39:41;45.35;;;15.38;;
35114;SDS011;21292;52.416;13.046;2022-12-08T03:42:09;44.22;;;15.95;;
35114;SDS011;21292;52.416;13.046;2022-12-08T03:44:37;40.08;;;15.60;;
35114;SDS011;21292;52.416;13.046;2022-12-08T03:47:05;43.63;;;16.33;;
35114;SDS011;21292;52.416;13.046;2022-12-08T03:49:33;49.20;;;18.00;;
35114;SDS011;21292;52.416;13.046;2022-12-08T03:52:04;48.10;;;17.92;;
35114;SDS011;21292;52.416;13.046;2022-12-08T03:54:32;52.75;;;18.55;;
35114;SDS011;21292;52.416;13.046;2022-12-08T03:57:00;49.50;;;19.75;;
35114;SDS011;21292;52.416;13.046;2022-12-08T03:59:28;46.72;;;18.50;;
35114;SDS011;21292;52.416;13.046;2022-12-08T04:01:56;62.53;;;20.75;;
35114;SDS011;21292;52.416;13.046;2022-12-08T04:04:24;64.45;;;22.33;;
35114;SDS011;21292;52.416;13.046;2022-12-08T04:06:52;52.60;;;21.52;;
35114;SDS011;21292;52.416;13.046;2022-12-08T04:09:21;62.25;;;23.55;;
35114;SDS011;21292;52.416;13.046;2022-12-08T04:11:49;66.55;;;25.05;;
35114;SDS011;21292;52.416;13.046;2022-12-08T04:14:17;67.45;;;23.08;;
35114;SDS011;21292;52.416;13.046;2022-12-08T04:16:45;67.88;;;25.08;;
35114;SDS011;21292;52.416;13.046;2022-12-08T04:19:13;61.60;;;21.33;;
35114;SDS011;21292;52.416;13.046;2022-12-08T04:21:42;60.10;;;24.70;;
35114;SDS011;21292;52.416;13.046;2022-12-08T04:24:10;69.75;;;24.73;;
35114;SDS011;21292;52.416;13.046;2022-12-08T04:26:39;68.10;;;25.83;;
35114;SDS011;21292;52.416;13.046;2022-12-08T04:29:07;63.95;;;23.73;;
35114;SDS011;21292;52.416;13.046;2022-12-08T04:31:35;68.47;;;27.20;;
35114;SDS011;21292;52.416;13.046;2022-12-08T04:34:03;69.15;;;25.67;;
35114;SDS011;21292;52.416;13.046;2022-12-08T04:36:31;71.10;;;27.63;;
35114;SDS011;21292;52.416;13.046;2022-12-08T04:39:00;66.35;;;24.90;;
35114;SDS011;21292;52.416;13.046;2022-12-08T04:41:28;67.45;;;25.38;;
35114;SDS011;21292;52.416;13.046;2022-12-08T04:43:57;66.82;;;25.30;;
35114;SDS011;21292;52.416;13.046;2022-12-08T04:46:25;76.07;;;25.52;;
35114;SDS011;21292;52.416;13.046;2022-12-08T04:48:53;75.57;;;24.52;;
35114;SDS011;21292;52.416;13.046;2022-12-08T04:51:22;73.70;;;27.02;;
35114;SDS011;21292;52.416;13.046;2022-12-08T04:53:50;72.32;;;27.08;;
35114;SDS011;21292;52.416;13.046;2022-12-08T04:56:18;70.38;;;26.23;;
35114;SDS011;21292;52.416;13.046;2022-12-08T04:58:46;78.13;;;26.42;;
35114;SDS011;21292;52.416;13.046;2022-12-08T05:01:15;72.32;;;26.15;;
35114;SDS011;21292;52.416;13.046;2022-12-08T05:03:43;74.95;;;27.40;;
35114;SDS011;21292;52.416;13.046;2022-12-08T05:06:12;73.20;;;27.45;;
35114;SDS011;21292;52.416;13.046;2022-12-08T05:08:41;70.22;;;26.60;;
35114;SDS011;21292;52.416;13.046;2022-12-08T05:11:10;69.63;;;26.92;;
35114;SDS011;21292;52.416;13.046;2022-12-08T05:13:39;71.65;;;26.67;;
35114;SDS011;21292;52.416;13.046;2022-12-08T05:16:08;72.68;;;26.77;;
35114;SDS011;21292;52.416;13.046;2022-12-08T05:18:39;71.78;;;26.48;;
35114;SDS011;21292;52.416;13.046;2022-12-08T05:21:08;78.30;;;26.92;;
35114;SDS011;21292;52.416;13.046;2022-12-08T05:23:36;69.95;;;25.60;;
35114;SDS011;21292;52.416;13.046;2022-12-08T05:26:05;71.97;;;26.60;;
35114;SDS011;21292;52.416;13.046;2022-12-08T05:28:33;66.00;;;26.80;;
35114;SDS011;21292;52.416;13.046;2022-12-08T05:31:10;74.47;;;26.42;;
35114;SDS011;21292;52.416;13.046;2022-12-08T05:33:40;69.82;;;26.42;;
35114;SDS011;21292;52.416;13.046;2022-12-08T05:36:09;60.30;;;25.23;;
35114;SDS011;21292;52.416;13.046;2022-12-08T05:38:38;68.35;;;25.45;;
35114;SDS011;21292;52.416;13.046;2022-12-08T05:41:07;64.80;;;26.20;;
35114;SDS011;21292;52.416;13.046;2022-12-08T05:43:36;69.38;;;26.13;;
35114;SDS011;21292;52.416;13.046;2022-12-08T05:46:04;62.78;;;24.40;;
35114;SDS011;21292;52.416;13.046;2022-12-08T05:48:34;54.90;;;23.98;;
35114;SDS011;21292;52.416;13.046;2022-12-08T05:51:05;68.00;;;26.02;;
35114;SDS011;21292;52.416;13.046;2022-12-08T05:53:34;65.63;;;25.08;;
35114;SDS011;21292;52.416;13.046;2022-12-08T05:56:02;62.08;;;24.90;;
35114;SDS011;21292;52.416;13.046;2022-12-08T05:58:31;63.80;;;24.83;;
35114;SDS011;21292;52.416;13.046;2022-12-08T06:00:59;55.10;;;23.30;;
35114;SDS011;21292;52.416;13.046;2022-12-08T06:03:27;60.70;;;25.42;;
35114;SDS011;21292;52.416;13.046;2022-12-08T06:05:56;62.67;;;25.70;;
35114;SDS011;21292;52.416;13.046;2022-12-08T06:08:25;58.50;;;25.85;;
35114;SDS011;21292;52.416;13.046;2022-12-08T06:10:53;56.30;;;22.92;;
35114;SDS011;21292;52.416;13.046;2022-12-08T06:13:22;57.60;;;23.65;;
35114;SDS011;21292;52.416;13.046;2022-12-08T06:15:50;58.50;;;23.30;;
35114;SDS011;21292;52.416;13.046;2022-12-08T06:18:19;59.72;;;23.20;;
35114;SDS011;21292;52.416;13.046;2022-12-08T06:20:47;47.22;;;21.98;;
35114;SDS011;21292;52.416;13.046;2022-12-08T06:23:15;56.30;;;22.70;;
35114;SDS011;21292;52.416;13.046;2022-12-08T06:25:44;58.03;;;23.60;;
35114;SDS011;21292;52.416;13.046;2022-12-08T06:28:13;59.83;;;23.63;;
35114;SDS011;21292;52.416;13.046;2022-12-08T06:30:41;56.55;;;23.42;;
35114;SDS011;21292;52.416;13.046;2022-12-08T06:33:09;52.67;;;22.15;;
35114;SDS011;21292;52.416;13.046;2022-12-08T06:35:37;53.13;;;24.02;;
35114;SDS011;21292;52.416;13.046;2022-12-08T06:38:05;51.35;;;21.00;;
35114;SDS011;21292;52.416;13.046;2022-12-08T06:40:33;58.53;;;22.13;;
35114;SDS011;21292;52.416;13.046;2022-12-08T06:43:02;51.17;;;22.25;;
35114;SDS011;21292;52.416;13.046;2022-12-08T06:45:30;46.88;;;22.95;;
35114;SDS011;21292;52.416;13.046;2022-12-08T06:47:59;55.95;;;22.35;;
35114;SDS011;21292;52.416;13.046;2022-12-08T06:50:28;59.58;;;24.75;;
35114;SDS011;21292;52.416;13.046;2022-12-08T06:52:56;65.03;;;24.58;;
35114;SDS011;21292;52.416;13.046;2022-12-08T06:55:31;55.55;;;24.25;;
35114;SDS011;21292;52.416;13.046;2022-12-08T06:58:20;60.33;;;25.77;;
35114;SDS011;21292;52.416;13.046;2022-12-08T07:00:49;58.80;;;23.95;;
35114;SDS011;21292;52.416;13.046;2022-12-08T07:03:17;64.00;;;26.38;;
35114;SDS011;21292;52.416;13.046;2022-12-08T07:05:45;56.70;;;24.02;;
35114;SDS011;21292;52.416;13.046;2022-12-08T07:08:13;55.10;;;22.52;;
35114;SDS011;21292;52.416;13.046;2022-12-08T07:10:42;51.33;;;21.88;;
35114;SDS011;21292;52.416;13.046;2022-12-08T07:13:10;56.28;;;23.75;;
35114;SDS011;21292;52.416;13.046;2022-12-08T07:15:39;57.90;;;23.33;;
35114;SDS011;21292;52.416;13.046;2022-12-08T07:18:08;61.42;;;25.33;;
35114;SDS011;21292;52.416;13.046;2022-12-08T07:20:36;52.88;;;23.08;;
35114;SDS011;21292;52.416;13.046;2022-12-08T07:23:05;49.53;;;22.27;;
35114;SDS011;21292;52.416;13.046;2022-12-08T07:25:33;46.30;;;21.20;;
35114;SDS011;21292;52.416;13.046;2022-12-08T07:28:06;56.72;;;21.92;;
35114;SDS011;21292;52.416;13.046;2022-12-08T07:30:35;58.08;;;23.52;;
35114;SDS011;21292;52.416;13.046;2022-12-08T07:33:04;49.70;;;22.00;;
35114;SDS011;21292;52.416;13.046;2022-12-08T07:35:33;54.80;;;22.40;;
35114;SDS011;21292;52.416;13.046;2022-12-08T07:38:01;50.17;;;21.05;;
35114;SDS011;21292;52.416;13.046;2022-12-08T07:40:29;45.55;;;21.65;;
35114;SDS011;21292;52.416;13.046;2022-12-08T07:42:57;48.53;;;21.85;;
35114;SDS011;21292;52.416;13.046;2022-12-08T07:45:25;52.50;;;21.10;;
35114;SDS011;21292;52.416;13.046;2022-12-08T07:47:57;43.85;;;19.63;;
35114;SDS011;21292;52.416;13.046;2022-12-08T07:50:27;42.78;;;20.50;;
35114;SDS011;21292;52.416;13.046;2022-12-08T07:52:55;47.15;;;20.83;;
35114;SDS011;21292;52.416;13.046;2022-12-08T07:55:23;49.38;;;22.23;;
35114;SDS011;21292;52.416;13.046;2022-12-08T07:57:51;45.42;;;20.08;;
35114;SDS011;21292;52.416;13.046;2022-12-08T08:00:23;40.80;;;20.30;;
35114;SDS011;21292;52.416;13.046;2022-12-08T08:02:51;40.63;;;20.83;;
35114;SDS011;21292;52.416;13.046;2022-12-08T08:05:19;39.67;;;18.45;;
35114;SDS011;21292;52.416;13.046;2022-12-08T08:07:48;43.00;;;19.45;;
35114;SDS011;21292;52.416;13.046;2022-12-08T08:10:17;45.03;;;20.73;;
35114;SDS011;21292;52.416;13.046;2022-12-08T08:12:44;39.05;;;20.13;;
35114;SDS011;21292;52.416;13.046;2022-12-08T08:15:14;49.50;;;20.33;;
35114;SDS011;21292;52.416;13.046;2022-12-08T08:17:43;45.92;;;19.48;;
35114;SDS011;21292;52.416;13.046;2022-12-08T08:20:11;35.75;;;17.98;;
35114;SDS011;21292;52.416;13.046;2022-12-08T08:22:40;47.00;;;19.27;;
35114;SDS011;21292;52.416;13.046;2022-12-08T08:25:09;43.65;;;19.40;;
35114;SDS011;21292;52.416;13.046;2022-12-08T08:27:38;39.10;;;18.52;;
35114;SDS011;21292;52.416;13.046;2022-12-08T08:30:06;41.53;;;19.63;;
35114;SDS011;21292;52.416;13.046;2022-12-08T08:32:42;36.05;;;17.23;;
35114;SDS011;21292;52.416;13.046;2022-12-08T08:35:10;37.60;;;17.92;;
35114;SDS011;21292;52.416;13.046;2022-12-08T08:37:39;39.13;;;18.05;;
35114;SDS011;21292;52.416;13.046;2022-12-08T08:40:16;33.30;;;16.50;;
35114;SDS011;21292;52.416;13.046;2022-12-08T08:42:44;35.65;;;17.27;;
35114;SDS011;21292;52.416;13.046;2022-12-08T08:45:12;33.97;;;18.13;;
35114;SDS011;21292;52.416;13.046;2022-12-08T08:47:41;35.97;;;16.15;;
35114;SDS011;21292;52.416;13.046;2022-12-08T08:50:09;37.25;;;18.70;;
35114;SDS011;21292;52.416;13.046;2022-12-08T08:52:37;35.22;;;16.80;;
35114;SDS011;21292;52.416;13.046;2022-12-08T08:55:05;34.60;;;17.52;;
35114;SDS011;21292;52.416;13.046;2022-12-08T08:57:36;30.25;;;16.50;;
35114;SDS011;21292;52.416;13.046;2022-12-08T09:00:05;37.90;;;18.80;;
35114;SDS011;21292;52.416;13.046;2022-12-08T09:02:35;31.27;;;16.55;;
35114;SDS011;21292;52.416;13.046;2022-12-08T09:05:04;33.72;;;16.60;;
35114;SDS011;21292;52.416;13.046;2022-12-08T09:07:33;32.15;;;15.13;;
35114;SDS011;21292;52.416;13.046;2022-12-08T09:10:01;30.00;;;15.38;;
35114;SDS011;21292;52.416;13.046;2022-12-08T09:12:30;30.65;;;15.70;;
35114;SDS011;21292;52.416;13.046;2022-12-08T09:14:59;28.38;;;15.13;;
35114;SDS011;21292;52.416;13.046;2022-12-08T09:17:27;32.22;;;16.08;;
35114;SDS011;21292;52.416;13.046;2022-12-08T09:19:55;31.90;;;16.80;;
35114;SDS011;21292;52.416;13.046;2022-12-08T09:22:23;31.08;;;15.10;;
35114;SDS011;21292;52.416;13.046;2022-12-08T09:24:51;32.25;;;15.50;;
35114;SDS011;21292;52.416;13.046;2022-12-08T09:27:19;30.65;;;15.82;;
35114;SDS011;21292;52.416;13.046;2022-12-08T09:29:48;27.27;;;14.90;;
35114;SDS011;21292;52.416;13.046;2022-12-08T09:32:17;28.85;;;15.02;;
35114;SDS011;21292;52.416;13.046;2022-12-08T09:34:45;24.70;;;14.73;;
35114;SDS011;21292;52.416;13.046;2022-12-08T09:37:18;26.90;;;12.82;;
35114;SDS011;21292;52.416;13.046;2022-12-08T09:39:46;27.92;;;15.13;;
35114;SDS011;21292;52.416;13.046;2022-12-08T09:42:23;29.40;;;13.27;;
35114;SDS011;21292;52.416;13.046;2022-12-08T09:44:59;25.52;;;13.30;;
35114;SDS011;21292;52.416;13.046;2022-12-08T09:47:33;24.50;;;13.77;;
35114;SDS011;21292;52.416;13.046;2022-12-08T09:50:05;23.50;;;12.85;;
35114;SDS011;21292;52.416;13.046;2022-12-08T09:52:39;23.02;;;14.07;;
35114;SDS011;21292;52.416;13.046;2022-12-08T09:55:11;29.60;;;13.68;;
35114;SDS011;21292;52.416;13.046;2022-12-08T09:57:44;22.75;;;11.18;;
35114;SDS011;21292;52.416;13.046;2022-12-08T10:00:22;23.50;;;13.18;;
35114;SDS011;21292;52.416;13.046;2022-12-08T10:02:51;23.70;;;12.30;;
35114;SDS011;21292;52.416;13.046;2022-12-08T10:05:19;22.35;;;11.68;;
35114;SDS011;21292;52.416;13.046;2022-12-08T10:07:53;19.42;;;11.60;;
35114;SDS011;21292;52.416;13.046;2022-12-08T10:10:28;18.00;;;12.02;;
35114;SDS011;21292;52.416;13.046;2022-12-08T10:13:03;21.17;;;11.75;;
35114;SDS011;21292;52.416;13.046;2022-12-08T10:15:38;24.13;;;12.00;;
35114;SDS011;21292;52.416;13.046;2022-12-08T10:18:13;20.70;;;11.18;;
35114;SDS011;21292;52.416;13.046;2022-12-08T10:20:43;24.65;;;12.45;;
35114;SDS011;21292;52.416;13.046;2022-12-08T10:23:16;23.20;;;11.57;;
35114;SDS011;21292;52.416;13.046;2022-12-08T10:25:51;25.42;;;11.52;;
35114;SDS011;21292;52.416;13.046;2022-12-08T10:28:23;17.13;;;10.95;;
35114;SDS011;21292;52.416;13.046;2022-12-08T10:30:51;17.65;;;10.48;;
35114;SDS011;21292;52.416;13.046;2022-12-08T10:33:21;19.70;;;10.60;;
35114;SDS011;21292;52.416;13.046;2022-12-08T10:35:51;21.02;;;11.98;;
35114;SDS011;21292;52.416;13.046;2022-12-08T10:38:21;23.17;;;12.05;;
35114;SDS011;21292;52.416;13.046;2022-12-08T10:40:50;23.35;;;11.77;;
35114;SDS011;21292;52.416;13.046;2022-12-08T10:43:21;23.05;;;11.77;;
35114;SDS011;21292;52.416;13.046;2022-12-08T10:45:51;19.38;;;11.98;;
35114;SDS011;21292;52.416;13.046;2022-12-08T10:48:20;21.45;;;11.77;;
35114;SDS011;21292;52.416;13.046;2022-12-08T10:50:52;25.37;;;12.53;;
35114;SDS011;21292;52.416;13.046;2022-12-08T10:53:22;27.25;;;13.90;;
35114;SDS011;21292;52.416;13.046;2022-12-08T10:55:52;28.73;;;12.95;;
35114;SDS011;21292;52.416;13.046;2022-12-08T10:58:24;26.95;;;13.45;;
35114;SDS011;21292;52.416;13.046;2022-12-08T11:01:00;25.75;;;14.35;;
35114;SDS011;21292;52.416;13.046;2022-12-08T11:03:33;29.05;;;14.13;;
35114;SDS011;21292;52.416;13.046;2022-12-08T11:06:08;28.17;;;14.20;;
35114;SDS011;21292;52.416;13.046;2022-12-08T11:08:44;27.25;;;14.25;;
35114;SDS011;21292;52.416;13.046;2022-12-08T11:11:18;26.20;;;13.85;;
35114;SDS011;21292;52.416;13.046;2022-12-08T11:13:54;29.42;;;15.88;;
35114;SDS011;21292;52.416;13.046;2022-12-08T11:16:23;34.80;;;15.05;;
35114;SDS011;21292;52.416;13.046;2022-12-08T11:18:55;34.08;;;15.52;;
35114;SDS011;21292;52.416;13.046;2022-12-08T11:21:33;30.50;;;16.17;;
35114;SDS011;21292;52.416;13.046;2022-12-08T11:24:09;38.60;;;15.85;;
35114;SDS011;21292;52.416;13.046;2022-12-08T11:26:48;31.73;;;15.10;;
35114;SDS011;21292;52.416;13.046;2022-12-08T11:29:18;32.58;;;15.93;;
35114;SDS011;21292;52.416;13.046;2022-12-08T11:31:47;39.08;;;18.13;;
35114;SDS011;21292;52.416;13.046;2022-12-08T11:34:22;36.63;;;16.15;;
35114;SDS011;21292;52.416;13.046;2022-12-08T11:37:03;33.17;;;16.13;;
35114;SDS011;21292;52.416;13.046;2022-12-08T11:39:33;36.05;;;16.73;;
35114;SDS011;21292;52.416;13.046;2022-12-08T11:42:03;35.50;;;15.80;;
35114;SDS011;21292;52.416;13.046;2022-12-08T11:44:35;29.88;;;16.05;;
35114;SDS011;21292;52.416;13.046;2022-12-08T11:47:06;28.35;;;15.15;;
35114;SDS011;21292;52.416;13.046;2022-12-08T11:49:40;35.17;;;16.95;;
35114;SDS011;21292;52.416;13.046;2022-12-08T11:52:11;38.22;;;15.88;;
35114;SDS011;21292;52.416;13.046;2022-12-08T11:54:46;33.22;;;16.40;;
35114;SDS011;21292;52.416;13.046;2022-12-08T11:57:17;29.50;;;14.88;;
35114;SDS011;21292;52.416;13.046;2022-12-08T11:59:47;35.47;;;16.38;;
35114;SDS011;21292;52.416;13.046;2022-12-08T12:02:17;39.85;;;16.67;;
35114;SDS011;21292;52.416;13.046;2022-12-08T12:04:51;40.45;;;17.60;;
35114;SDS011;21292;52.416;13.046;2022-12-08T12:07:34;40.38;;;18.25;;
35114;SDS011;21292;52.416;13.046;2022-12-08T12:12:58;35.70;;;15.48;;
35114;SDS011;21292;52.416;13.046;2022-12-08T12:15:42;39.30;;;18.25;;
35114;SDS011;21292;52.416;13.046;2022-12-08T12:18:23;38.63;;;18.33;;
35114;SDS011;21292;52.416;13.046;2022-12-08T12:20:56;41.33;;;16.77;;
35114;SDS011;21292;52.416;13.046;2022-12-08T12:23:27;39.70;;;17.30;;
35114;SDS011;21292;52.416;13.046;2022-12-08T12:25:59;40.97;;;16.92;;
35114;SDS011;21292;52.416;13.046;2022-12-08T12:28:30;34.75;;;17.15;;
35114;SDS011;21292;52.416;13.046;2022-12-08T12:31:05;36.25;;;17.08;;
35114;SDS011;21292;52.416;13.046;2022-12-08T12:33:34;35.85;;;18.27;;
35114;SDS011;21292;52.416;13.046;2022-12-08T12:36:05;38.65;;;17.80;;
35114;SDS011;21292;52.416;13.046;2022-12-08T12:38:34;37.70;;;16.83;;
35114;SDS011;21292;52.416;13.046;2022-12-08T12:41:21;40.55;;;18.40;;
35114;SDS011;21292;52.416;13.046;2022-12-08T12:46:54;35.00;;;17.13;;
35114;SDS011;21292;52.416;13.046;2022-12-08T12:52:46;39.25;;;18.15;;
35114;SDS011;21292;52.416;13.046;2022-12-08T12:55:18;37.75;;;18.13;;
35114;SDS011;21292;52.416;13.046;2022-12-08T12:57:49;45.00;;;19.13;;
35114;SDS011;21292;52.416;13.046;2022-12-08T13:00:18;33.45;;;17.50;;
35114;SDS011;21292;52.416;13.046;2022-12-08T13:02:47;39.90;;;20.33;;
35114;SDS011;21292;52.416;13.046;2022-12-08T13:05:17;43.40;;;18.63;;
35114;SDS011;21292;52.416;13.046;2022-12-08T13:07:50;42.95;;;18.83;;
35114;SDS011;21292;52.416;13.046;2022-12-08T13:10:21;41.72;;;18.90;;
35114;SDS011;21292;52.416;13.046;2022-12-08T13:13:00;49.72;;;20.17;;
35114;SDS011;21292;52.416;13.046;2022-12-08T13:15:47;54.33;;;25.02;;
35114;SDS011;21292;52.416;13.046;2022-12-08T13:18:17;54.05;;;25.60;;
35114;SDS011;21292;52.416;13.046;2022-12-08T13:20:47;43.63;;;20.92;;
35114;SDS011;21292;52.416;13.046;2022-12-08T13:23:25;42.47;;;20.48;;
35114;SDS011;21292;52.416;13.046;2022-12-08T13:26:13;40.55;;;19.40;;
35114;SDS011;21292;52.416;13.046;2022-12-08T13:29:03;47.58;;;19.52;;
35114;SDS011;21292;52.416;13.046;2022-12-08T13:31:46;40.67;;;20.13;;
35114;SDS011;21292;52.416;13.046;2022-12-08T13:34:18;41.83;;;18.42;;
35114;SDS011;21292;52.416;13.046;2022-12-08T13:36:58;38.83;;;19.63;;
35114;SDS011;21292;52.416;13.046;2022-12-08T13:39:31;40.90;;;19.05;;
35114;SDS011;21292;52.416;13.046;2022-12-08T13:42:03;42.50;;;19.60;;
35114;SDS011;21292;52.416;13.046;2022-12-08T13:47:26;45.25;;;22.10;;
35114;SDS011;21292;52.416;13.046;2022-12-08T13:50:02;50.30;;;21.33;;
35114;SDS011;21292;52.416;13.046;2022-12-08T13:52:52;36.33;;;17.65;;
35114;SDS011;21292;52.416;13.046;2022-12-08T13:55:45;29.77;;;15.90;;
35114;SDS011;21292;52.416;13.046;2022-12-08T13:58:36;24.88;;;13.90;;
35114;SDS011;21292;52.416;13.046;2022-12-08T14:01:05;26.90;;;13.88;;
35114;SDS011;21292;52.416;13.046;2022-12-08T14:03:37;29.98;;;15.45;;
35114;SDS011;21292;52.416;13.046;2022-12-08T14:06:34;31.40;;;15.27;;
35114;SDS011;21292;52.416;13.046;2022-12-08T14:09:04;40.53;;;16.77;;
35114;SDS011;21292;52.416;13.046;2022-12-08T14:11:39;35.85;;;16.20;;
35114;SDS011;21292;52.416;13.046;2022-12-08T14:16:47;31.60;;;16.42;;
35114;SDS011;21292;52.416;13.046;2022-12-08T14:19:18;31.73;;;14.45;;
35114;SDS011;21292;52.416;13.046;2022-12-08T14:21:52;29.17;;;15.32;;
35114;SDS011;21292;52.416;13.046;2022-12-08T14:24:23;30.30;;;14.45;;
35114;SDS011;21292;52.416;13.046;2022-12-08T14:26:55;29.83;;;16.02;;
35114;SDS011;21292;52.416;13.046;2022-12-08T14:32:18;24.35;;;12.95;;
35114;SDS011;21292;52.416;13.046;2022-12-08T14:34:50;23.70;;;12.68;;
35114;SDS011;21292;52.416;13.046;2022-12-08T14:37:20;23.92;;;12.95;;
35114;SDS011;21292;52.416;13.046;2022-12-08T14:39:49;21.73;;;12.00;;
35114;SDS011;21292;52.416;13.046;2022-12-08T14:42:22;23.63;;;12.10;;
35114;SDS011;21292;52.416;13.046;2022-12-08T14:44:56;21.38;;;11.93;;
35114;SDS011;21292;52.416;13.046;2022-12-08T14:47:30;22.75;;;12.38;;
35114;SDS011;21292;52.416;13.046;2022-12-08T14:50:00;25.35;;;12.70;;
35114;SDS011;21292;52.416;13.046;2022-12-08T14:52:29;22.80;;;12.35;;
35114;SDS011;21292;52.416;13.046;2022-12-08T14:54:57;23.48;;;12.27;;